createdAt,value
2023-06-09T00:02:05.480Z,17.90
2023-06-09T00:04:34.793Z,17.90
2023-06-09T00:07:05.860Z,17.90
2023-06-09T00:09:33.007Z,17.80
2023-06-09T00:12:00.614Z,17.80
2023-06-09T00:14:27.586Z,17.80
2023-06-09T00:16:54.519Z,17.80
2023-06-09T00:19:23.243Z,17.70
2023-06-09T00:21:52.836Z,17.70
2023-06-09T00:24:22.438Z,17.70
2023-06-09T00:26:50.629Z,17.60
2023-06-09T00:29:18.908Z,17.70
2023-06-09T00:31:47.231Z,17.60
2023-06-09T00:34:14.155Z,17.60
2023-06-09T00:36:41.401Z,17.60
2023-06-09T00:39:08.985Z,17.50
2023-06-09T00:41:40.212Z,17.50
2023-06-09T00:44:07.961Z,17.40
2023-06-09T00:46:36.057Z,17.40
2023-06-09T00:49:03.047Z,17.40
2023-06-09T00:51:31.002Z,17.40
2023-06-09T00:53:58.155Z,17.40
2023-06-09T00:56:25.684Z,17.30
2023-06-09T00:58:52.985Z,17.30
2023-06-09T01:01:20.041Z,17.30
2023-06-09T01:03:50.063Z,17.30
2023-06-09T01:06:41.060Z,17.20
2023-06-09T01:09:33.525Z,17.20
2023-06-09T01:12:32.253Z,17.20
2023-06-09T01:15:10.087Z,17.10
2023-06-09T01:17:39.603Z,17.10
2023-06-09T01:20:08.448Z,17.10
2023-06-09T01:22:52.488Z,17.10
2023-06-09T01:25:40.788Z,17.00
2023-06-09T01:28:13.205Z,17.00
2023-06-09T01:30:42.461Z,17.00
2023-06-09T01:33:16.411Z,16.90
2023-06-09T01:35:44.187Z,16.90
2023-06-09T01:38:12.105Z,16.80
2023-06-09T01:40:38.934Z,16.80
2023-06-09T01:43:07.178Z,16.80
2023-06-09T01:45:34.428Z,16.80
2023-06-09T01:48:07.788Z,16.70
2023-06-09T01:50:52.641Z,16.70
2023-06-09T01:53:28.012Z,16.70
2023-06-09T01:56:07.364Z,16.70
2023-06-09T01:58:44.952Z,16.60
2023-06-09T02:01:16.298Z,16.60
2023-06-09T02:03:45.345Z,16.60
2023-06-09T02:06:16.685Z,16.60
2023-06-09T02:08:44.669Z,16.60
2023-06-09T02:11:11.692Z,16.50
2023-06-09T02:13:38.912Z,16.50
2023-06-09T02:16:06.073Z,16.50
2023-06-09T02:18:33.323Z,16.40
2023-06-09T02:21:00.604Z,16.40
2023-06-09T02:23:27.640Z,16.40
2023-06-09T02:25:54.508Z,16.40
2023-06-09T02:28:21.280Z,16.30
2023-06-09T02:30:48.607Z,16.40
2023-06-09T02:33:19.669Z,16.30
2023-06-09T02:35:46.747Z,16.30
2023-06-09T02:38:13.624Z,16.20
2023-06-09T02:40:44.352Z,16.20
2023-06-09T02:43:11.117Z,16.20
2023-06-09T02:45:37.926Z,16.20
2023-06-09T02:48:05.130Z,16.10
2023-06-09T02:50:31.959Z,16.10
2023-06-09T02:52:58.831Z,16.10
2023-06-09T02:55:26.131Z,16.10
2023-06-09T02:57:52.881Z,16.00
2023-06-09T03:00:20.196Z,16.00
2023-06-09T03:05:14.360Z,16.00
2023-06-09T03:07:41.239Z,15.90
2023-06-09T03:10:08.566Z,16.00
2023-06-09T03:12:36.568Z,15.90
2023-06-09T03:15:03.684Z,15.90
2023-06-09T03:17:30.522Z,15.90
2023-06-09T03:19:57.428Z,15.80
2023-06-09T03:22:24.905Z,15.80
2023-06-09T03:24:52.584Z,15.80
2023-06-09T03:27:19.384Z,15.70
2023-06-09T03:29:46.441Z,15.70
2023-06-09T03:32:13.169Z,15.70
2023-06-09T03:34:42.149Z,15.70
2023-06-09T03:37:11.640Z,15.70
2023-06-09T03:39:38.399Z,15.70
2023-06-09T03:42:06.054Z,15.70
2023-06-09T03:44:32.855Z,15.60
2023-06-09T03:46:59.599Z,15.60
2023-06-09T03:49:26.430Z,15.50
2023-06-09T03:51:53.235Z,15.50
2023-06-09T03:54:20.033Z,15.50
2023-06-09T03:56:47.160Z,15.50
2023-06-09T03:59:13.969Z,15.50
2023-06-09T04:01:41.755Z,15.50
2023-06-09T04:04:08.676Z,15.50
2023-06-09T04:06:36.309Z,15.50
2023-06-09T04:09:05.091Z,15.40
2023-06-09T04:11:33.633Z,15.40
2023-06-09T04:14:00.489Z,15.40
2023-06-09T04:16:27.310Z,15.40
2023-06-09T04:18:54.675Z,15.40
2023-06-09T04:21:21.524Z,15.40
2023-06-09T04:23:48.310Z,15.40
2023-06-09T04:26:15.586Z,15.30
2023-06-09T04:28:43.169Z,15.40
2023-06-09T04:31:11.192Z,15.40
2023-06-09T04:33:38.160Z,15.30
2023-06-09T04:36:05.463Z,15.40
2023-06-09T04:38:35.820Z,15.40
2023-06-09T04:41:04.781Z,15.40
2023-06-09T04:43:33.847Z,15.40
2023-06-09T04:46:01.529Z,15.30
2023-06-09T04:48:31.408Z,15.40
2023-06-09T04:51:02.484Z,15.40
2023-06-09T04:53:30.228Z,15.40
2023-06-09T04:56:01.236Z,15.50
2023-06-09T04:58:29.819Z,15.50
2023-06-09T05:00:58.403Z,15.50
2023-06-09T05:03:26.246Z,15.50
2023-06-09T05:05:53.573Z,15.60
2023-06-09T05:08:22.105Z,15.60
2023-06-09T05:10:49.797Z,15.70
2023-06-09T05:13:16.568Z,15.70
2023-06-09T05:15:43.320Z,15.70
2023-06-09T05:18:10.093Z,15.80
2023-06-09T05:20:37.121Z,15.80
2023-06-09T05:23:04.020Z,15.90
2023-06-09T05:25:30.927Z,15.90
2023-06-09T05:27:57.754Z,16.00
2023-06-09T05:30:24.495Z,16.00
2023-06-09T05:32:51.339Z,16.10
2023-06-09T05:35:18.600Z,16.10
2023-06-09T05:37:52.881Z,16.20
2023-06-09T05:40:20.039Z,16.20
2023-06-09T05:42:47.329Z,16.30
2023-06-09T05:45:14.358Z,16.40
2023-06-09T05:47:41.177Z,16.40
2023-06-09T05:50:08.522Z,16.50
2023-06-09T05:52:35.440Z,16.50
2023-06-09T05:55:02.827Z,16.60
2023-06-09T05:57:31.371Z,16.60
2023-06-09T05:59:58.709Z,16.70
2023-06-09T06:02:26.212Z,16.70
2023-06-09T06:04:53.192Z,16.80
2023-06-09T06:07:23.095Z,16.90
2023-06-09T06:09:49.923Z,16.90
2023-06-09T06:12:16.762Z,17.00
2023-06-09T06:14:43.536Z,17.10
2023-06-09T06:17:10.511Z,17.10
2023-06-09T06:19:37.466Z,17.30
2023-06-09T06:22:04.836Z,17.30
2023-06-09T06:24:31.589Z,17.40
2023-06-09T06:26:58.423Z,17.50
2023-06-09T06:29:25.255Z,17.60
2023-06-09T06:31:52.797Z,17.70
2023-06-09T06:34:19.661Z,17.70
2023-06-09T06:36:46.430Z,17.80
2023-06-09T06:39:13.855Z,17.90
2023-06-09T06:41:41.223Z,18.00
2023-06-09T06:44:08.078Z,18.10
2023-06-09T06:46:34.967Z,18.20
2023-06-09T06:49:02.592Z,18.30
2023-06-09T06:51:29.739Z,18.40
2023-06-09T06:53:56.709Z,18.50
2023-06-09T06:56:23.612Z,18.60
2023-06-09T06:58:50.851Z,18.60
2023-06-09T07:01:18.609Z,18.70
2023-06-09T07:03:46.625Z,18.90
2023-06-09T07:06:13.640Z,18.90
2023-06-09T07:08:40.641Z,19.00
2023-06-09T07:11:07.540Z,19.10
2023-06-09T07:13:34.809Z,19.20
2023-06-09T07:16:02.240Z,19.30
2023-06-09T07:18:30.360Z,19.40
2023-06-09T07:20:57.235Z,19.50
2023-06-09T07:23:24.132Z,19.60
2023-06-09T07:25:50.961Z,19.60
2023-06-09T07:28:17.784Z,19.80
2023-06-09T07:30:44.684Z,19.90
2023-06-09T07:33:11.588Z,19.90
2023-06-09T07:35:38.684Z,20.00
2023-06-09T07:38:06.567Z,20.10
2023-06-09T07:40:33.470Z,20.20
2023-06-09T07:43:00.442Z,20.30
2023-06-09T07:45:27.317Z,20.40
2023-06-09T07:47:54.127Z,20.50
2023-06-09T07:50:21.012Z,20.60
2023-06-09T07:52:47.881Z,20.70
2023-06-09T07:55:16.054Z,20.80
2023-06-09T07:57:44.735Z,20.90
2023-06-09T08:00:14.906Z,21.00
2023-06-09T08:02:43.674Z,21.10
2023-06-09T08:05:11.185Z,21.20
2023-06-09T08:07:38.509Z,21.30
2023-06-09T08:10:07.176Z,21.30
2023-06-09T08:12:36.148Z,21.40
2023-06-09T08:15:02.947Z,21.50
2023-06-09T08:17:29.799Z,21.60
2023-06-09T08:19:56.761Z,21.70
2023-06-09T08:22:23.626Z,21.80
2023-06-09T08:24:50.428Z,21.90
2023-06-09T08:27:17.204Z,22.00
2023-06-09T08:29:44.029Z,22.10
2023-06-09T08:32:10.950Z,22.20
2023-06-09T08:34:37.718Z,22.20
2023-06-09T08:37:04.914Z,22.40
2023-06-09T08:39:31.925Z,22.40
2023-06-09T08:42:01.953Z,22.50
2023-06-09T08:44:30.919Z,22.60
2023-06-09T08:47:02.673Z,22.70
2023-06-09T08:49:30.565Z,22.80
2023-06-09T08:51:59.607Z,22.90
2023-06-09T08:54:27.178Z,23.00
2023-06-09T08:56:54.124Z,23.20
2023-06-09T08:59:23.101Z,23.30
2023-06-09T09:01:51.012Z,23.40
2023-06-09T09:04:18.347Z,23.50
2023-06-09T09:06:45.202Z,23.60
2023-06-09T09:09:12.087Z,23.70
2023-06-09T09:11:39.683Z,23.80
2023-06-09T09:14:11.078Z,23.90
2023-06-09T09:16:37.897Z,24.00
2023-06-09T09:19:05.588Z,24.10
2023-06-09T09:21:38.547Z,24.20
2023-06-09T09:24:07.368Z,24.30
2023-06-09T09:26:35.079Z,24.40
2023-06-09T09:29:08.326Z,24.60
2023-06-09T09:31:38.486Z,24.70
2023-06-09T09:34:05.429Z,24.80
2023-06-09T09:36:34.488Z,24.90
2023-06-09T09:39:07.002Z,25.00
2023-06-09T09:41:33.883Z,25.10
2023-06-09T09:44:00.766Z,25.20
2023-06-09T09:46:27.996Z,25.30
2023-06-09T09:48:57.557Z,25.40
2023-06-09T09:51:24.523Z,25.50
2023-06-09T09:53:51.876Z,25.70
2023-06-09T09:56:22.747Z,25.80
2023-06-09T09:58:53.324Z,25.90
2023-06-09T10:01:25.182Z,26.00
2023-06-09T10:03:54.851Z,26.10
2023-06-09T10:06:28.546Z,26.20
2023-06-09T10:08:56.942Z,26.30
2023-06-09T10:11:29.779Z,26.40
2023-06-09T10:13:56.656Z,26.50
2023-06-09T10:16:24.462Z,26.60
2023-06-09T10:18:52.637Z,26.70
2023-06-09T10:21:20.758Z,26.80
2023-06-09T10:23:48.704Z,27.00
2023-06-09T10:26:16.492Z,27.00
2023-06-09T10:28:43.263Z,27.20
2023-06-09T10:31:12.712Z,27.20
2023-06-09T10:33:44.666Z,27.40
2023-06-09T10:36:11.983Z,27.40
2023-06-09T10:38:44.126Z,27.50
2023-06-09T10:41:32.072Z,27.60
2023-06-09T10:44:17.675Z,27.70
2023-06-09T10:46:49.869Z,27.80
2023-06-09T10:49:39.079Z,27.90
2023-06-09T10:52:30.180Z,28.00
2023-06-09T10:55:16.756Z,28.20
2023-06-09T10:57:44.590Z,28.30
2023-06-09T11:00:16.978Z,28.30
2023-06-09T11:03:13.629Z,28.40
2023-06-09T11:05:45.707Z,28.50
2023-06-09T11:08:12.538Z,28.60
2023-06-09T11:10:39.597Z,28.60
2023-06-09T11:13:45.001Z,28.80
2023-06-09T11:16:11.796Z,28.90
2023-06-09T11:18:39.923Z,28.90
2023-06-09T11:21:17.322Z,28.90
2023-06-09T11:24:04.886Z,29.00
2023-06-09T11:26:33.962Z,29.10
2023-06-09T11:29:01.846Z,29.20
2023-06-09T11:31:28.895Z,29.30
2023-06-09T11:33:56.986Z,29.30
2023-06-09T11:36:26.682Z,29.40
2023-06-09T11:38:54.070Z,29.50
2023-06-09T11:41:23.218Z,29.60
2023-06-09T11:43:57.526Z,29.70
2023-06-09T11:46:25.004Z,29.70
2023-06-09T11:49:06.162Z,29.80
2023-06-09T11:52:07.566Z,29.90
2023-06-09T11:54:47.306Z,30.00
2023-06-09T11:57:15.217Z,30.00
2023-06-09T11:59:46.069Z,30.00
2023-06-09T12:02:14.611Z,30.00
2023-06-09T12:04:43.467Z,30.10
2023-06-09T12:07:14.623Z,30.10
2023-06-09T12:09:42.033Z,30.20
2023-06-09T12:12:09.694Z,30.20
2023-06-09T12:14:37.522Z,30.40
2023-06-09T12:17:04.878Z,30.40
2023-06-09T12:19:32.125Z,30.50
2023-06-09T12:21:58.944Z,30.60
2023-06-09T12:24:28.231Z,30.70
2023-06-09T12:26:56.273Z,30.70
2023-06-09T12:29:27.582Z,30.90
2023-06-09T12:31:54.395Z,30.90
2023-06-09T12:34:30.412Z,31.00
2023-06-09T12:36:58.315Z,31.10
2023-06-09T12:39:30.233Z,31.20
2023-06-09T12:41:57.364Z,31.20
2023-06-09T12:44:25.965Z,31.30
2023-06-09T12:46:56.894Z,31.30
2023-06-09T12:49:31.663Z,31.30
2023-06-09T12:52:03.144Z,31.40
2023-06-09T12:54:29.979Z,31.50
2023-06-09T12:56:57.487Z,31.60
2023-06-09T12:59:25.124Z,31.80
2023-06-09T13:01:53.839Z,31.90
2023-06-09T13:04:21.411Z,31.80
2023-06-09T13:06:48.871Z,31.80
2023-06-09T13:09:15.825Z,31.70
2023-06-09T13:11:42.864Z,31.60
2023-06-09T13:14:09.739Z,31.50
2023-06-09T13:16:36.661Z,31.50
2023-06-09T13:19:03.438Z,31.40
2023-06-09T13:21:42.879Z,31.50
2023-06-09T13:24:11.079Z,31.70
2023-06-09T13:26:37.867Z,31.90
2023-06-09T13:29:04.768Z,32.20
2023-06-09T13:31:31.710Z,32.40
2023-06-09T13:33:58.592Z,32.60
2023-06-09T13:36:25.425Z,32.70
2023-06-09T13:38:52.368Z,32.90
2023-06-09T13:41:19.386Z,33.00
2023-06-09T13:43:46.296Z,33.10
2023-06-09T13:46:13.118Z,33.30
2023-06-09T13:48:40.620Z,33.40
2023-06-09T13:51:07.635Z,33.50
2023-06-09T13:53:34.477Z,33.60
2023-06-09T13:56:01.383Z,33.60
2023-06-09T13:58:28.448Z,33.60
2023-06-09T14:00:56.723Z,33.50
2023-06-09T14:03:24.507Z,33.30
2023-06-09T14:05:51.430Z,33.10
2023-06-09T14:08:18.294Z,33.00
2023-06-09T14:10:45.859Z,32.90
2023-06-09T14:13:12.755Z,32.80
2023-06-09T14:15:39.523Z,32.80
2023-06-09T14:18:07.047Z,32.70
2023-06-09T14:20:34.010Z,32.60
2023-06-09T14:23:03.995Z,32.50
2023-06-09T14:25:30.874Z,32.30
2023-06-09T14:27:58.048Z,32.20
2023-06-09T14:30:26.513Z,32.10
2023-06-09T14:32:53.499Z,32.00
2023-06-09T14:35:24.796Z,31.90
2023-06-09T14:37:55.547Z,31.90
2023-06-09T14:40:24.365Z,31.70
2023-06-09T14:42:51.892Z,31.70
2023-06-09T14:45:23.614Z,31.50
2023-06-09T14:48:02.241Z,31.40
2023-06-09T14:50:35.426Z,31.30
2023-06-09T14:53:03.721Z,31.20
2023-06-09T14:55:32.872Z,31.20
2023-06-09T14:58:02.182Z,31.10
2023-06-09T15:00:31.852Z,31.10
2023-06-09T15:02:59.688Z,31.00
2023-06-09T15:05:29.546Z,31.00
2023-06-09T15:07:58.305Z,30.80
2023-06-09T15:10:30.152Z,30.80
2023-06-09T15:12:57.439Z,30.80
2023-06-09T15:15:28.618Z,30.80
2023-06-09T15:17:56.998Z,30.70
2023-06-09T15:20:28.814Z,30.70
2023-06-09T15:22:58.380Z,30.70
2023-06-09T15:25:30.125Z,30.70
2023-06-09T15:28:01.632Z,30.70
2023-06-09T15:30:32.945Z,30.80
2023-06-09T15:33:08.504Z,30.80
2023-06-09T15:35:37.470Z,30.80
2023-06-09T15:38:06.051Z,30.80
2023-06-09T15:40:37.136Z,30.80
2023-06-09T15:43:04.118Z,30.80
2023-06-09T15:45:57.457Z,30.80
2023-06-09T15:48:24.925Z,30.70
2023-06-09T15:50:52.332Z,30.70
2023-06-09T15:53:21.551Z,30.70
2023-06-09T15:55:49.801Z,30.70
2023-06-09T15:58:16.661Z,30.70
2023-06-09T16:00:44.209Z,30.70
2023-06-09T16:03:11.138Z,30.80
2023-06-09T16:05:42.439Z,30.80
2023-06-09T16:08:12.049Z,30.80
2023-06-09T16:10:40.776Z,30.80
2023-06-09T16:13:08.105Z,30.80
2023-06-09T16:15:35.995Z,30.80
2023-06-09T16:18:05.067Z,30.70
2023-06-09T16:20:34.357Z,30.70
2023-06-09T16:23:02.577Z,30.70
2023-06-09T16:25:30.792Z,30.60
2023-06-09T16:27:58.189Z,30.50
2023-06-09T16:30:25.412Z,30.50
2023-06-09T16:32:52.303Z,30.50
2023-06-09T16:35:19.759Z,30.50
2023-06-09T16:37:46.477Z,30.50
2023-06-09T16:40:13.387Z,30.50
2023-06-09T16:42:40.250Z,30.50
2023-06-09T16:45:07.862Z,30.50
2023-06-09T16:47:34.952Z,30.50
2023-06-09T16:50:01.796Z,30.50
2023-06-09T16:52:28.701Z,30.50
2023-06-09T16:54:55.620Z,30.50
2023-06-09T16:57:23.309Z,30.50
2023-06-09T16:59:50.154Z,30.60
2023-06-09T17:02:17.111Z,30.60
2023-06-09T17:04:43.941Z,30.60
2023-06-09T17:07:10.784Z,30.70
2023-06-09T17:09:37.707Z,30.70
2023-06-09T17:12:04.926Z,30.70
2023-06-09T17:14:31.763Z,30.70
2023-06-09T17:16:58.742Z,30.70
2023-06-09T17:19:26.701Z,30.60
2023-06-09T17:21:53.586Z,30.60
2023-06-09T17:24:20.557Z,30.50
2023-06-09T17:26:48.141Z,30.60
2023-06-09T17:29:15.182Z,30.60
2023-06-09T17:31:41.948Z,30.60
2023-06-09T17:34:09.503Z,30.70
2023-06-09T17:36:36.391Z,30.70
2023-06-09T17:39:03.905Z,30.70
2023-06-09T17:41:30.982Z,30.70
2023-06-09T17:44:02.122Z,30.70
2023-06-09T17:46:30.272Z,30.70
2023-06-09T17:48:57.159Z,30.80
2023-06-09T17:51:24.085Z,30.80
2023-06-09T17:53:53.954Z,30.90
2023-06-09T17:56:21.229Z,31.00
2023-06-09T17:58:48.141Z,31.20
2023-06-09T18:01:14.965Z,31.20
2023-06-09T18:03:41.746Z,31.30
2023-06-09T18:06:09.006Z,31.30
2023-06-09T18:08:35.921Z,31.40
2023-06-09T18:11:05.339Z,31.50
2023-06-09T18:13:33.194Z,31.50
2023-06-09T18:16:00.364Z,31.50
2023-06-09T18:18:27.177Z,31.60
2023-06-09T18:20:54.068Z,31.60
2023-06-09T18:23:20.885Z,31.60
2023-06-09T18:25:48.094Z,31.60
2023-06-09T18:28:16.566Z,31.60
2023-06-09T18:30:46.095Z,31.50
2023-06-09T18:33:12.868Z,31.50
2023-06-09T18:35:39.716Z,31.50
2023-06-09T18:38:06.677Z,31.50
2023-06-09T18:40:33.456Z,31.50
2023-06-09T18:43:00.294Z,31.50
2023-06-09T18:45:27.120Z,31.40
2023-06-09T18:47:55.183Z,31.30
2023-06-09T18:50:22.208Z,31.20
2023-06-09T18:52:49.695Z,31.10
2023-06-09T18:55:16.538Z,31.00
2023-06-09T18:57:43.341Z,30.90
2023-06-09T19:00:11.191Z,30.80
2023-06-09T19:02:38.267Z,30.70
2023-06-09T19:05:05.541Z,30.60
2023-06-09T19:07:32.325Z,30.50
2023-06-09T19:10:01.366Z,30.50
2023-06-09T19:12:28.574Z,30.40
2023-06-09T19:14:55.427Z,30.40
2023-06-09T19:17:22.319Z,30.40
2023-06-09T19:19:49.258Z,30.20
2023-06-09T19:22:16.219Z,30.20
2023-06-09T19:24:45.098Z,30.00
2023-06-09T19:27:12.507Z,29.90
2023-06-09T19:29:39.370Z,29.80
2023-06-09T19:32:07.363Z,29.70
2023-06-09T19:34:34.625Z,29.60
2023-06-09T19:37:03.593Z,29.40
2023-06-09T19:39:31.368Z,29.40
2023-06-09T19:41:58.117Z,29.20
2023-06-09T19:44:24.953Z,29.20
2023-06-09T19:46:51.831Z,29.10
2023-06-09T19:49:19.403Z,29.00
2023-06-09T19:51:46.584Z,28.90
2023-06-09T19:54:13.374Z,28.80
2023-06-09T19:56:47.843Z,28.70
2023-06-09T19:59:16.228Z,28.60
2023-06-09T20:01:44.415Z,28.50
2023-06-09T20:04:11.536Z,28.40
2023-06-09T20:06:39.900Z,28.40
2023-06-09T20:09:06.732Z,28.30
2023-06-09T20:11:33.664Z,28.20
2023-06-09T20:14:00.521Z,28.20
2023-06-09T20:16:27.406Z,28.10
2023-06-09T20:18:54.386Z,28.00
2023-06-09T20:21:24.174Z,28.00
2023-06-09T20:23:50.895Z,27.80
2023-06-09T20:26:19.160Z,27.80
2023-06-09T20:28:46.981Z,27.70
2023-06-09T20:31:13.960Z,27.60
2023-06-09T20:33:42.593Z,27.60
2023-06-09T20:36:09.966Z,27.50
2023-06-09T20:38:36.970Z,27.40
2023-06-09T20:41:04.990Z,27.30
2023-06-09T20:43:31.793Z,27.30
2023-06-09T20:46:02.076Z,27.20
2023-06-09T20:48:30.201Z,27.20
2023-06-09T20:50:57.384Z,27.10
2023-06-09T20:53:24.414Z,27.00
2023-06-09T20:55:52.222Z,27.00
2023-06-09T20:58:19.497Z,26.90
2023-06-09T21:00:50.206Z,26.90
2023-06-09T21:03:18.237Z,26.80
2023-06-09T21:05:45.705Z,26.70
2023-06-09T21:08:12.714Z,26.70
2023-06-09T21:10:41.087Z,26.60
2023-06-09T21:13:07.989Z,26.60
2023-06-09T21:15:35.693Z,26.50
2023-06-09T21:18:03.181Z,26.50
2023-06-09T21:20:33.981Z,26.40
2023-06-09T21:23:01.928Z,26.40
2023-06-09T21:25:32.841Z,26.30
2023-06-09T21:28:04.961Z,26.20
2023-06-09T21:30:32.925Z,26.20
2023-06-09T21:33:00.497Z,26.10
2023-06-09T21:35:27.333Z,26.10
2023-06-09T21:37:54.644Z,26.00
2023-06-09T21:40:21.551Z,26.00
2023-06-09T21:42:48.339Z,25.90
2023-06-09T21:45:15.253Z,25.90
2023-06-09T21:47:42.245Z,25.90
2023-06-09T21:50:09.748Z,25.80
2023-06-09T21:52:36.811Z,25.80
2023-06-09T21:55:05.449Z,25.70
2023-06-09T21:57:32.607Z,25.70
2023-06-09T21:59:59.738Z,25.60
2023-06-09T22:02:27.374Z,25.60
2023-06-09T22:04:54.557Z,25.50
2023-06-09T22:07:22.017Z,25.50
2023-06-09T22:09:48.774Z,25.40
2023-06-09T22:12:18.692Z,25.40
2023-06-09T22:14:45.531Z,25.40
2023-06-09T22:17:12.658Z,25.30
2023-06-09T22:19:39.673Z,25.20
2023-06-09T22:22:07.685Z,25.20
2023-06-09T22:24:34.907Z,25.20
2023-06-09T22:27:02.660Z,25.10
2023-06-09T22:29:29.753Z,25.10
2023-06-09T22:31:56.812Z,25.00
2023-06-09T22:34:23.698Z,25.00
2023-06-09T22:36:50.628Z,25.00
2023-06-09T22:39:17.499Z,24.90
2023-06-09T22:41:44.389Z,24.90
2023-06-09T22:44:11.453Z,24.80
2023-06-09T22:46:38.352Z,24.80
2023-06-09T22:49:06.484Z,24.70
2023-06-09T22:51:33.234Z,24.60
2023-06-09T22:54:00.378Z,24.60
2023-06-09T22:56:27.565Z,24.60
2023-06-09T22:58:54.527Z,24.50
2023-06-09T23:01:21.665Z,24.40
2023-06-09T23:03:52.263Z,24.40
2023-06-09T23:06:20.702Z,24.40
2023-06-09T23:08:47.577Z,24.30
2023-06-09T23:11:15.082Z,24.30
2023-06-09T23:13:42.536Z,24.20
2023-06-09T23:16:09.914Z,24.20
2023-06-09T23:18:37.113Z,24.10
2023-06-09T23:21:05.246Z,24.10
2023-06-09T23:23:34.112Z,24.00
2023-06-09T23:26:02.609Z,24.00
2023-06-09T23:28:30.131Z,23.90
2023-06-09T23:30:57.347Z,23.90
2023-06-09T23:33:26.328Z,23.80
2023-06-09T23:35:54.447Z,23.80
2023-06-09T23:38:21.599Z,23.80
2023-06-09T23:40:48.535Z,23.70
2023-06-09T23:43:15.391Z,23.60
2023-06-09T23:45:42.278Z,23.60
2023-06-09T23:48:09.444Z,23.50
2023-06-09T23:50:36.424Z,23.50
2023-06-09T23:53:08.850Z,23.50
2023-06-09T23:55:37.477Z,23.50
2023-06-09T23:58:04.279Z,23.40
